createdAt,value
2023-05-05T00:01:41.648Z,33.36
2023-05-05T00:04:31.658Z,33.71
2023-05-05T00:07:20.382Z,33.43
2023-05-05T00:10:09.748Z,33.41
2023-05-05T00:12:58.673Z,33.46
2023-05-05T00:15:48.817Z,33.61
2023-05-05T00:18:37.611Z,33.51
2023-05-05T00:21:28.055Z,33.37
2023-05-05T00:24:16.834Z,33.22
2023-05-05T00:27:08.057Z,33.34
2023-05-05T00:29:56.672Z,33.05
2023-05-05T00:32:45.318Z,33.47
2023-05-05T00:35:36.174Z,33.47
2023-05-05T00:38:26.280Z,33.35
2023-05-05T00:41:15.079Z,33.47
2023-05-05T00:44:03.752Z,33.56
2023-05-05T00:46:53.438Z,33.68
2023-05-05T00:49:42.186Z,33.50
2023-05-05T00:52:32.536Z,33.44
2023-05-05T00:55:25.590Z,33.42
2023-05-05T00:58:14.820Z,33.84
2023-05-05T01:01:04.403Z,33.74
2023-05-05T01:03:53.327Z,33.52
2023-05-05T01:06:50.106Z,33.83
2023-05-05T01:09:46.216Z,33.67
2023-05-05T01:12:47.978Z,33.71
2023-05-05T01:15:39.387Z,33.97
2023-05-05T01:18:33.755Z,34.04
2023-05-05T01:21:35.043Z,33.56
2023-05-05T01:24:45.854Z,34.01
2023-05-05T01:27:50.054Z,33.51
2023-05-05T01:31:11.600Z,33.94
2023-05-05T01:34:05.524Z,33.48
2023-05-05T01:37:05.958Z,33.85
2023-05-05T01:39:59.128Z,33.58
2023-05-05T01:42:48.384Z,34.08
2023-05-05T01:45:40.838Z,33.77
2023-05-05T01:48:30.011Z,33.64
2023-05-05T01:51:22.932Z,34.02
2023-05-05T01:54:12.243Z,33.85
2023-05-05T01:57:02.003Z,33.71
2023-05-05T01:59:53.607Z,33.74
2023-05-05T02:02:42.901Z,33.55
2023-05-05T02:05:33.276Z,33.67
2023-05-05T02:08:24.918Z,33.50
2023-05-05T02:11:16.908Z,33.52
2023-05-05T02:14:07.166Z,33.74
2023-05-05T02:16:58.221Z,33.64
2023-05-05T02:19:49.546Z,33.71
2023-05-05T02:22:38.507Z,33.94
2023-05-05T02:25:36.990Z,33.42
2023-05-05T02:28:34.929Z,33.97
2023-05-05T02:31:28.200Z,33.50
2023-05-05T02:34:21.846Z,33.74
2023-05-05T02:37:14.131Z,33.92
2023-05-05T02:40:06.084Z,33.71
2023-05-05T02:42:58.819Z,33.63
2023-05-05T02:45:47.470Z,33.46
2023-05-05T02:48:36.222Z,33.96
2023-05-05T02:51:24.808Z,34.10
2023-05-05T02:54:13.614Z,33.77
2023-05-05T02:57:03.975Z,33.68
2023-05-05T03:00:05.727Z,33.42
2023-05-05T03:03:07.232Z,33.69
2023-05-05T03:06:03.973Z,33.45
2023-05-05T03:08:58.025Z,33.35
2023-05-05T03:11:51.246Z,33.30
2023-05-05T03:14:43.436Z,33.84
2023-05-05T03:17:34.439Z,33.80
2023-05-05T03:20:25.020Z,33.68
2023-05-05T03:23:14.586Z,33.82
2023-05-05T03:26:03.187Z,33.75
2023-05-05T03:28:51.906Z,33.66
2023-05-05T03:31:40.945Z,33.93
2023-05-05T03:34:30.880Z,33.54
2023-05-05T03:37:19.498Z,33.92
2023-05-05T03:40:09.395Z,33.95
2023-05-05T03:42:58.180Z,34.04
2023-05-05T03:45:46.776Z,33.75
2023-05-05T03:48:35.398Z,33.48
2023-05-05T03:51:25.749Z,33.41
2023-05-05T03:54:14.379Z,33.47
2023-05-05T03:57:03.929Z,33.88
2023-05-05T03:59:52.819Z,33.95
2023-05-05T04:02:41.447Z,33.59
2023-05-05T04:05:30.112Z,33.68
2023-05-05T04:08:20.199Z,33.94
2023-05-05T04:11:08.815Z,34.03
2023-05-05T04:13:57.416Z,34.03
2023-05-05T04:16:45.997Z,33.90
2023-05-05T04:19:35.068Z,33.75
2023-05-05T04:22:24.739Z,33.63
2023-05-05T04:25:14.750Z,33.73
2023-05-05T04:28:03.446Z,33.74
2023-05-05T04:30:52.115Z,33.52
2023-05-05T04:33:40.847Z,34.07
2023-05-05T04:36:29.566Z,33.85
2023-05-05T04:39:18.182Z,34.03
2023-05-05T04:42:08.839Z,34.12
2023-05-05T04:44:59.894Z,34.32
2023-05-05T04:47:48.557Z,33.90
2023-05-05T04:50:37.301Z,34.06
2023-05-05T04:53:25.930Z,34.43
2023-05-05T04:56:17.294Z,34.47
2023-05-05T04:59:10.172Z,33.77
2023-05-05T05:01:59.792Z,33.99
2023-05-05T05:04:49.002Z,34.17
2023-05-05T05:07:37.638Z,34.38
2023-05-05T05:10:26.219Z,34.27
2023-05-05T05:13:15.617Z,34.33
2023-05-05T05:16:07.556Z,34.08
2023-05-05T05:18:56.254Z,33.99
2023-05-05T05:21:44.890Z,34.13
2023-05-05T05:24:34.763Z,34.31
2023-05-05T05:27:23.557Z,34.49
2023-05-05T05:30:12.922Z,34.04
2023-05-05T05:33:02.938Z,34.29
2023-05-05T05:35:51.601Z,33.98
2023-05-05T05:38:40.207Z,33.95
2023-05-05T05:41:28.854Z,34.23
2023-05-05T05:44:17.416Z,34.06
2023-05-05T05:47:06.194Z,34.23
2023-05-05T05:49:56.229Z,34.10
2023-05-05T05:52:44.846Z,34.07
2023-05-05T05:55:33.444Z,34.36
2023-05-05T05:58:22.024Z,34.12
2023-05-05T06:01:10.707Z,34.43
2023-05-05T06:03:59.324Z,34.36
2023-05-05T06:06:49.962Z,34.30
2023-05-05T06:09:38.582Z,34.15
2023-05-05T06:12:27.460Z,34.44
2023-05-05T06:15:16.209Z,34.16
2023-05-05T06:18:04.984Z,34.06
2023-05-05T06:20:53.754Z,33.83
2023-05-05T06:23:43.987Z,33.90
2023-05-05T06:26:32.639Z,33.83
2023-05-05T06:29:22.273Z,34.25
2023-05-05T06:32:12.639Z,34.28
2023-05-05T06:35:01.272Z,34.05
2023-05-05T06:37:52.190Z,34.06
2023-05-05T06:40:45.161Z,33.76
2023-05-05T06:43:33.790Z,33.80
2023-05-05T06:46:22.506Z,34.05
2023-05-05T06:49:11.340Z,33.91
2023-05-05T06:51:59.992Z,33.91
2023-05-05T06:54:48.528Z,34.17
2023-05-05T06:57:38.673Z,33.85
2023-05-05T07:00:27.507Z,33.79
2023-05-05T07:03:16.236Z,33.90
2023-05-05T07:06:05.225Z,33.70
2023-05-05T07:08:54.497Z,33.66
2023-05-05T07:12:02.037Z,33.55
2023-05-05T07:14:52.236Z,33.44
2023-05-05T07:17:41.105Z,33.55
2023-05-05T07:20:29.694Z,34.02
2023-05-05T07:23:18.420Z,33.72
2023-05-05T07:26:07.562Z,33.78
2023-05-05T07:28:58.710Z,33.79
2023-05-05T07:31:49.087Z,33.95
2023-05-05T07:34:38.272Z,33.77
2023-05-05T07:37:27.093Z,33.70
2023-05-05T07:40:15.823Z,33.42
2023-05-05T07:43:05.019Z,33.50
2023-05-05T07:45:53.785Z,33.74
2023-05-05T07:48:43.782Z,33.95
2023-05-05T07:51:34.596Z,34.41
2023-05-05T07:54:23.701Z,34.38
2023-05-05T07:57:14.660Z,34.46
2023-05-05T08:00:03.416Z,34.15
2023-05-05T08:02:53.479Z,34.29
2023-05-05T08:05:43.674Z,34.42
2023-05-05T08:08:32.781Z,34.39
2023-05-05T08:11:23.369Z,34.22
2023-05-05T08:14:12.038Z,34.35
2023-05-05T08:17:00.678Z,34.34
2023-05-05T08:19:49.348Z,34.42
2023-05-05T08:22:39.315Z,34.39
2023-05-05T08:25:27.989Z,34.28
2023-05-05T08:28:16.604Z,33.93
2023-05-05T08:31:05.735Z,33.77
2023-05-05T08:33:54.421Z,33.77
2023-05-05T08:36:43.090Z,33.90
2023-05-05T08:39:33.736Z,34.07
2023-05-05T08:42:35.560Z,34.04
2023-05-05T08:45:27.019Z,34.11
2023-05-05T08:48:19.364Z,34.17
2023-05-05T08:51:10.261Z,34.29
2023-05-05T08:54:03.660Z,34.64
2023-05-05T08:56:56.485Z,34.40
2023-05-05T08:59:46.359Z,34.28
2023-05-05T09:02:37.063Z,34.11
2023-05-05T09:05:28.830Z,34.09
2023-05-05T09:08:17.781Z,33.79
2023-05-05T09:11:06.626Z,33.75
2023-05-05T09:13:56.713Z,33.70
2023-05-05T09:16:45.924Z,33.70
2023-05-05T09:19:34.677Z,33.96
2023-05-05T09:22:34.874Z,33.95
2023-05-05T09:25:23.465Z,33.95
2023-05-05T09:28:14.199Z,33.62
2023-05-05T09:31:16.167Z,33.09
2023-05-05T09:34:16.897Z,33.33
2023-05-05T09:37:06.115Z,32.98
2023-05-05T09:39:56.662Z,33.68
2023-05-05T09:42:45.714Z,33.18
2023-05-05T09:45:34.406Z,32.75
2023-05-05T09:48:29.009Z,32.49
2023-05-05T09:51:17.827Z,33.57
2023-05-05T09:54:06.549Z,33.75
2023-05-05T09:56:55.985Z,33.72
2023-05-05T09:59:56.460Z,33.83
2023-05-05T10:02:45.244Z,33.92
2023-05-05T10:05:47.868Z,33.81
2023-05-05T10:08:36.640Z,34.05
2023-05-05T10:11:25.554Z,33.96
2023-05-05T10:14:15.854Z,33.79
2023-05-05T10:17:05.962Z,33.44
2023-05-05T10:20:00.478Z,33.20
2023-05-05T10:22:53.398Z,33.42
2023-05-05T10:25:47.358Z,33.28
2023-05-05T10:28:38.851Z,33.47
2023-05-05T10:31:31.650Z,33.39
2023-05-05T10:34:25.956Z,33.44
2023-05-05T10:37:15.162Z,33.19
2023-05-05T10:40:06.230Z,33.11
2023-05-05T10:42:57.145Z,32.88
2023-05-05T10:45:46.354Z,32.95
2023-05-05T10:48:46.356Z,33.01
2023-05-05T10:51:47.851Z,33.26
2023-05-05T10:54:41.084Z,33.37
2023-05-05T10:57:36.316Z,32.77
2023-05-05T11:00:52.896Z,32.95
2023-05-05T11:03:41.671Z,33.08
2023-05-05T11:06:31.310Z,32.59
2023-05-05T11:09:30.015Z,32.48
2023-05-05T11:12:18.649Z,32.57
2023-05-05T11:15:38.447Z,32.85
2023-05-05T11:18:33.940Z,33.00
2023-05-05T11:21:22.548Z,32.93
2023-05-05T11:24:31.169Z,32.84
2023-05-05T11:27:19.821Z,32.99
2023-05-05T11:30:10.619Z,32.94
2023-05-05T11:33:26.150Z,32.62
2023-05-05T11:36:16.267Z,32.96
2023-05-05T11:39:13.343Z,32.80
2023-05-05T11:42:24.421Z,32.96
2023-05-05T11:45:23.788Z,32.82
2023-05-05T11:48:29.135Z,32.12
2023-05-05T11:51:19.130Z,31.85
2023-05-05T11:54:07.867Z,32.42
2023-05-05T11:56:58.797Z,32.25
2023-05-05T11:59:55.347Z,31.87
2023-05-05T12:02:44.278Z,31.42
2023-05-05T12:05:36.415Z,31.23
2023-05-05T12:08:26.049Z,32.49
2023-05-05T12:11:14.648Z,32.34
2023-05-05T12:14:10.675Z,31.58
2023-05-05T12:17:01.292Z,31.78
2023-05-05T12:19:51.302Z,32.23
2023-05-05T12:22:41.667Z,32.08
2023-05-05T12:25:38.114Z,32.18
2023-05-05T12:28:26.886Z,32.63
2023-05-05T12:31:15.933Z,32.10
2023-05-05T12:34:05.266Z,31.31
2023-05-05T12:36:54.582Z,31.55
2023-05-05T12:39:44.556Z,31.71
2023-05-05T12:42:34.005Z,31.58
2023-05-05T12:45:22.962Z,31.92
2023-05-05T12:48:23.986Z,31.88
2023-05-05T12:51:17.688Z,31.06
2023-05-05T12:54:08.112Z,32.02
2023-05-05T12:56:58.775Z,31.75
2023-05-05T12:59:48.283Z,31.52
2023-05-05T13:02:37.058Z,31.47
2023-05-05T13:05:33.576Z,31.76
2023-05-05T13:08:22.620Z,31.88
2023-05-05T13:11:12.175Z,32.10
2023-05-05T13:14:02.180Z,31.94
2023-05-05T13:16:51.413Z,30.73
2023-05-05T13:19:45.984Z,30.31
2023-05-05T13:22:34.715Z,31.13
2023-05-05T13:25:24.977Z,31.29
2023-05-05T13:28:13.803Z,31.72
2023-05-05T13:31:03.951Z,31.70
2023-05-05T13:33:52.780Z,31.37
2023-05-05T13:36:41.355Z,30.68
2023-05-05T13:39:30.094Z,31.40
2023-05-05T13:42:18.834Z,30.87
2023-05-05T13:45:08.347Z,31.27
2023-05-05T13:47:58.537Z,30.69
2023-05-05T13:50:47.104Z,30.07
2023-05-05T13:53:36.256Z,30.42
2023-05-05T13:56:26.267Z,31.13
2023-05-05T13:59:15.089Z,31.29
2023-05-05T14:02:03.783Z,31.55
2023-05-05T14:04:53.911Z,31.18
2023-05-05T14:07:42.585Z,31.43
2023-05-05T14:10:31.210Z,30.83
2023-05-05T14:13:19.907Z,31.14
2023-05-05T14:16:08.908Z,31.11
2023-05-05T14:18:57.566Z,31.17
2023-05-05T14:21:47.503Z,31.69
2023-05-05T14:24:36.423Z,31.83
2023-05-05T14:27:24.992Z,31.95
2023-05-05T14:30:14.598Z,31.45
2023-05-05T14:33:04.940Z,31.23
2023-05-05T14:35:54.377Z,30.79
2023-05-05T14:38:47.282Z,31.04
2023-05-05T14:41:35.997Z,31.19
2023-05-05T14:44:26.262Z,31.04
2023-05-05T14:47:14.827Z,31.32
2023-05-05T14:50:04.008Z,31.28
2023-05-05T14:52:52.676Z,31.30
2023-05-05T14:55:44.661Z,31.33
2023-05-05T14:58:35.535Z,31.10
2023-05-05T15:01:25.122Z,30.95
2023-05-05T15:04:13.784Z,30.67
2023-05-05T15:07:02.458Z,30.31
2023-05-05T15:09:51.112Z,30.46
2023-05-05T15:12:42.309Z,30.77
2023-05-05T15:15:30.976Z,30.21
2023-05-05T15:18:20.078Z,30.39
2023-05-05T15:21:08.842Z,30.66
2023-05-05T15:23:57.548Z,30.52
2023-05-05T15:26:46.257Z,30.58
2023-05-05T15:29:36.361Z,31.04
2023-05-05T15:32:25.088Z,30.27
2023-05-05T15:35:13.660Z,29.97
2023-05-05T15:38:02.274Z,29.83
2023-05-05T15:40:51.038Z,29.61
2023-05-05T15:43:39.816Z,29.95
2023-05-05T15:46:31.917Z,29.73
2023-05-05T15:49:20.534Z,29.84
2023-05-05T15:52:09.356Z,29.91
2023-05-05T15:54:58.087Z,30.02
2023-05-05T15:57:46.643Z,29.83
2023-05-05T16:00:35.258Z,29.64
2023-05-05T16:03:25.291Z,29.95
2023-05-05T16:06:14.215Z,30.25
2023-05-05T16:09:04.000Z,30.52
2023-05-05T16:11:54.571Z,30.39
2023-05-05T16:14:43.183Z,30.17
2023-05-05T16:17:31.874Z,30.67
2023-05-05T16:20:21.890Z,30.47
2023-05-05T16:23:10.541Z,30.83
2023-05-05T16:25:59.164Z,30.44
2023-05-05T16:28:47.817Z,30.67
2023-05-05T16:31:36.595Z,30.30
2023-05-05T16:34:25.482Z,29.99
2023-05-05T16:37:15.484Z,29.84
2023-05-05T16:40:05.455Z,30.35
2023-05-05T16:42:54.373Z,30.45
2023-05-05T16:45:43.384Z,30.22
2023-05-05T16:48:32.080Z,30.51
2023-05-05T16:51:20.715Z,30.90
2023-05-05T16:54:10.966Z,31.40
2023-05-05T16:56:59.644Z,31.16
2023-05-05T16:59:48.237Z,30.45
2023-05-05T17:02:37.484Z,30.73
2023-05-05T17:05:26.818Z,30.75
2023-05-05T17:08:16.051Z,30.79
2023-05-05T17:11:06.274Z,29.54
2023-05-05T17:13:56.014Z,29.98
2023-05-05T17:16:44.721Z,29.84
2023-05-05T17:19:33.491Z,29.03
2023-05-05T17:22:22.281Z,28.94
2023-05-05T17:25:15.331Z,28.82
2023-05-05T17:28:08.037Z,28.42
2023-05-05T17:31:00.028Z,27.85
2023-05-05T17:33:52.491Z,28.51
2023-05-05T17:36:41.079Z,28.64
2023-05-05T17:39:32.300Z,28.43
2023-05-05T17:42:23.078Z,28.29
2023-05-05T17:45:13.922Z,28.07
2023-05-05T17:48:06.744Z,27.80
2023-05-05T17:50:56.548Z,27.58
2023-05-05T17:53:45.149Z,27.53
2023-05-05T17:56:35.754Z,27.86
2023-05-05T17:59:27.647Z,27.65
2023-05-05T18:02:21.048Z,27.65
2023-05-05T18:05:11.516Z,27.96
2023-05-05T18:08:01.016Z,28.16
2023-05-05T18:10:49.695Z,28.68
2023-05-05T18:13:39.341Z,28.80
2023-05-05T18:16:29.427Z,29.38
2023-05-05T18:19:23.321Z,29.49
2023-05-05T18:22:13.577Z,29.81
2023-05-05T18:25:07.953Z,30.22
2023-05-05T18:27:59.419Z,30.61
2023-05-05T18:30:48.877Z,30.37
2023-05-05T18:33:37.504Z,30.29
2023-05-05T18:36:28.139Z,30.55
2023-05-05T18:39:20.768Z,30.99
2023-05-05T18:42:13.303Z,31.14
2023-05-05T18:45:05.299Z,31.25
2023-05-05T18:47:54.785Z,31.01
2023-05-05T18:50:43.465Z,31.74
2023-05-05T18:53:34.386Z,31.64
2023-05-05T18:56:23.482Z,32.00
2023-05-05T18:59:15.086Z,32.68
2023-05-05T19:02:03.673Z,33.20
2023-05-05T19:04:53.164Z,33.82
2023-05-05T19:07:41.879Z,34.53
2023-05-05T19:10:35.245Z,34.85
2023-05-05T19:13:23.952Z,35.16
2023-05-05T19:16:13.234Z,35.06
2023-05-05T19:19:02.042Z,35.22
2023-05-05T19:21:50.658Z,35.41
2023-05-05T19:24:39.299Z,35.48
2023-05-05T19:27:30.059Z,35.51
2023-05-05T19:30:21.455Z,35.65
2023-05-05T19:33:10.187Z,35.52
2023-05-05T19:35:59.056Z,35.68
2023-05-05T19:38:47.619Z,35.52
2023-05-05T19:41:36.336Z,34.63
2023-05-05T19:44:26.631Z,34.28
2023-05-05T19:47:15.230Z,34.20
2023-05-05T19:50:04.606Z,34.17
2023-05-05T19:52:53.580Z,34.29
2023-05-05T19:55:42.114Z,34.08
2023-05-05T19:58:31.449Z,33.99
2023-05-05T20:01:21.632Z,34.07
2023-05-05T20:04:11.953Z,34.17
2023-05-05T20:07:01.811Z,35.53
2023-05-05T20:09:53.265Z,35.46
2023-05-05T20:12:47.904Z,35.83
2023-05-05T20:15:37.041Z,35.66
2023-05-05T20:18:27.082Z,35.69
2023-05-05T20:21:16.624Z,35.89
2023-05-05T20:24:06.168Z,35.83
2023-05-05T20:26:54.903Z,36.03
2023-05-05T20:29:44.026Z,36.63
2023-05-05T20:32:33.244Z,36.69
2023-05-05T20:35:23.434Z,36.74
2023-05-05T20:38:12.037Z,35.79
2023-05-05T20:41:00.852Z,35.65
2023-05-05T20:43:49.741Z,35.14
2023-05-05T20:46:39.902Z,35.52
2023-05-05T20:49:28.646Z,35.21
2023-05-05T20:52:18.593Z,35.32
2023-05-05T20:55:08.150Z,35.13
2023-05-05T20:57:56.935Z,36.52
2023-05-05T21:00:46.309Z,36.88
2023-05-05T21:03:34.936Z,36.76
2023-05-05T21:06:24.342Z,37.33
2023-05-05T21:09:14.664Z,36.77
2023-05-05T21:12:03.438Z,37.16
2023-05-05T21:14:52.349Z,36.67
2023-05-05T21:17:40.987Z,37.01
2023-05-05T21:20:29.704Z,36.63
2023-05-05T21:23:18.671Z,37.03
2023-05-05T21:26:08.741Z,36.96
2023-05-05T21:28:57.335Z,37.00
2023-05-05T21:31:46.014Z,36.85
2023-05-05T21:34:34.673Z,36.93
2023-05-05T21:37:23.376Z,37.09
2023-05-05T21:40:14.958Z,37.06
2023-05-05T21:43:07.424Z,36.96
2023-05-05T21:46:05.072Z,36.39
2023-05-05T21:48:54.343Z,36.51
2023-05-05T21:51:43.510Z,36.76
2023-05-05T21:54:32.415Z,37.14
2023-05-05T21:57:21.284Z,37.15
2023-05-05T22:00:16.612Z,36.78
2023-05-05T22:03:06.399Z,37.04
2023-05-05T22:05:55.431Z,37.11
2023-05-05T22:08:44.232Z,37.01
2023-05-05T22:11:32.862Z,36.73
2023-05-05T22:14:21.483Z,36.85
2023-05-05T22:17:11.826Z,36.77
2023-05-05T22:20:00.561Z,37.27
2023-05-05T22:22:49.442Z,37.04
2023-05-05T22:25:38.219Z,36.75
2023-05-05T22:28:27.734Z,36.88
2023-05-05T22:31:16.464Z,36.32
2023-05-05T22:34:06.986Z,36.67
2023-05-05T22:36:58.808Z,36.83
2023-05-05T22:39:47.414Z,36.97
2023-05-05T22:42:36.280Z,37.17
2023-05-05T22:45:25.155Z,37.26
2023-05-05T22:48:14.114Z,37.19
2023-05-05T22:51:04.500Z,36.89
2023-05-05T22:53:53.165Z,37.23
2023-05-05T22:56:42.295Z,37.39
2023-05-05T22:59:30.941Z,37.51
2023-05-05T23:02:19.490Z,37.46
2023-05-05T23:05:10.065Z,37.34
2023-05-05T23:08:01.316Z,37.78
2023-05-05T23:10:51.052Z,37.36
2023-05-05T23:13:39.628Z,37.57
2023-05-05T23:16:28.224Z,37.89
2023-05-05T23:19:16.840Z,37.75
2023-05-05T23:22:06.174Z,37.83
2023-05-05T23:24:56.137Z,38.28
2023-05-05T23:27:44.718Z,38.26
2023-05-05T23:30:33.346Z,38.48
2023-05-05T23:33:21.931Z,38.41
2023-05-05T23:36:11.190Z,38.64
2023-05-05T23:38:59.795Z,38.56
2023-05-05T23:41:49.746Z,38.67
2023-05-05T23:44:38.410Z,38.95
2023-05-05T23:47:27.412Z,39.11
2023-05-05T23:50:16.028Z,39.07
2023-05-05T23:53:04.617Z,38.92
2023-05-05T23:55:53.175Z,39.04
2023-05-05T23:58:43.157Z,38.90
